createdAt,value
2022-10-12T00:03:37.110Z,74.81
2022-10-12T00:10:42.151Z,75.38
2022-10-12T00:17:43.697Z,75.37
2022-10-12T00:24:45.239Z,75.16
2022-10-12T00:31:46.786Z,74.90
2022-10-12T00:38:48.809Z,74.88
2022-10-12T00:45:50.381Z,75.62
2022-10-12T00:53:12.817Z,75.62
2022-10-12T01:00:14.786Z,75.89
2022-10-12T01:07:16.350Z,75.44
2022-10-12T01:14:17.884Z,75.35
2022-10-12T01:21:20.814Z,75.53
2022-10-12T01:28:44.045Z,76.02
2022-10-12T01:35:51.370Z,76.32
2022-10-12T01:42:52.940Z,76.40
2022-10-12T01:49:54.502Z,76.48
2022-10-12T01:57:31.214Z,76.47
2022-10-12T02:04:47.845Z,76.57
2022-10-12T02:11:50.203Z,76.55
2022-10-12T02:18:53.043Z,76.52
2022-10-12T02:25:54.628Z,76.75
2022-10-12T02:33:03.630Z,76.95
2022-10-12T02:40:20.011Z,76.94
2022-10-12T02:47:22.376Z,76.98
2022-10-12T02:54:23.990Z,77.10
2022-10-12T03:01:25.610Z,77.43
2022-10-12T03:08:27.173Z,77.68
2022-10-12T03:15:28.773Z,78.00
2022-10-12T03:22:30.660Z,78.41
2022-10-12T03:29:32.204Z,78.45
2022-10-12T03:36:33.795Z,78.66
2022-10-12T03:43:35.338Z,79.26
2022-10-12T03:50:36.955Z,79.03
2022-10-12T03:57:38.745Z,79.05
2022-10-12T04:04:40.520Z,78.79
2022-10-12T04:11:42.097Z,78.58
2022-10-12T04:18:43.727Z,78.59
2022-10-12T04:25:45.249Z,78.45
2022-10-12T04:32:46.789Z,78.62
2022-10-12T04:39:48.362Z,78.91
2022-10-12T04:46:50.159Z,78.99
2022-10-12T04:53:51.780Z,79.18
2022-10-12T05:00:53.302Z,79.93
2022-10-12T05:07:55.021Z,80.54
2022-10-12T05:14:56.615Z,80.31
2022-10-12T05:21:58.174Z,79.99
2022-10-12T05:28:59.825Z,79.56
2022-10-12T05:36:01.389Z,79.71
2022-10-12T05:43:02.956Z,79.46
2022-10-12T05:50:04.844Z,79.33
2022-10-12T05:57:06.423Z,79.30
2022-10-12T06:04:08.007Z,79.75
2022-10-12T06:11:09.567Z,79.48
2022-10-12T06:18:11.112Z,79.65
2022-10-12T06:25:12.681Z,78.83
2022-10-12T06:32:14.320Z,78.64
2022-10-12T06:39:15.879Z,79.12
2022-10-12T06:46:17.442Z,79.48
2022-10-12T06:53:19.441Z,78.92
2022-10-12T07:00:21.061Z,76.94
2022-10-12T07:07:22.621Z,75.57
2022-10-12T07:14:24.201Z,73.40
2022-10-12T07:21:25.893Z,72.58
2022-10-12T07:28:28.644Z,69.33
2022-10-12T07:35:30.377Z,67.35
2022-10-12T07:42:31.961Z,65.98
2022-10-12T07:49:33.548Z,63.76
2022-10-12T07:56:35.186Z,61.52
2022-10-12T08:03:36.999Z,60.31
2022-10-12T08:10:38.543Z,58.84
2022-10-12T08:17:40.551Z,55.38
2022-10-12T08:24:42.463Z,53.96
2022-10-12T08:31:44.040Z,52.03
2022-10-12T08:38:54.008Z,52.58
2022-10-12T08:45:58.868Z,51.04
2022-10-12T08:53:05.183Z,50.24
2022-10-12T09:00:09.916Z,47.80
2022-10-12T09:07:31.397Z,47.26
2022-10-12T09:14:34.143Z,45.24
2022-10-12T09:21:35.755Z,44.06
2022-10-12T09:28:45.283Z,42.78
2022-10-12T09:35:47.345Z,41.58
2022-10-12T09:42:48.927Z,39.72
2022-10-12T09:49:51.969Z,39.26
2022-10-12T09:56:55.171Z,37.66
2022-10-12T10:04:23.930Z,37.25
2022-10-12T10:11:27.227Z,35.61
2022-10-12T10:18:34.031Z,34.72
2022-10-12T10:25:35.637Z,33.29
2022-10-12T10:32:37.189Z,31.71
2022-10-12T10:39:46.534Z,30.80
2022-10-12T10:46:48.087Z,30.54
2022-10-12T10:53:51.278Z,30.29
2022-10-12T11:00:53.518Z,29.52
2022-10-12T11:07:56.645Z,29.40
2022-10-12T11:15:35.738Z,28.38
2022-10-12T11:22:49.169Z,27.71
2022-10-12T11:30:08.501Z,28.04
2022-10-12T11:37:20.962Z,28.55
2022-10-12T11:44:41.348Z,29.28
2022-10-12T11:51:47.321Z,29.63
2022-10-12T11:59:00.417Z,29.40
2022-10-12T12:06:42.158Z,31.17
2022-10-12T12:13:43.724Z,30.40
2022-10-12T12:20:45.311Z,29.48
2022-10-12T12:27:47.846Z,28.62
2022-10-12T12:35:00.479Z,29.30
2022-10-12T12:42:11.939Z,29.15
2022-10-12T12:49:40.408Z,30.61
2022-10-12T12:56:45.121Z,31.96
2022-10-12T13:04:00.754Z,32.61
2022-10-12T13:11:02.291Z,33.63
2022-10-12T13:18:48.851Z,34.40
2022-10-12T13:25:56.955Z,35.64
2022-10-12T13:33:04.327Z,35.63
2022-10-12T13:40:06.339Z,36.11
2022-10-12T13:47:41.713Z,36.05
2022-10-12T13:54:46.091Z,36.27
2022-10-12T14:01:55.075Z,36.64
2022-10-12T14:09:06.189Z,37.16
2022-10-12T14:16:07.744Z,37.59
2022-10-12T14:23:15.943Z,37.75
2022-10-12T14:30:18.757Z,38.26
2022-10-12T14:37:24.033Z,38.11
2022-10-12T14:44:27.025Z,38.29
2022-10-12T14:51:28.815Z,39.19
2022-10-12T14:58:30.441Z,39.31
2022-10-12T15:05:32.828Z,39.79
2022-10-12T15:12:34.515Z,39.86
2022-10-12T15:19:36.144Z,40.27
2022-10-12T15:26:42.076Z,40.61
2022-10-12T15:33:43.966Z,40.72
2022-10-12T15:40:46.170Z,41.18
2022-10-12T15:47:48.133Z,41.58
2022-10-12T15:54:49.909Z,41.66
2022-10-12T16:01:51.453Z,41.97
2022-10-12T16:08:53.059Z,42.27
2022-10-12T16:15:54.595Z,42.68
2022-10-12T16:22:56.147Z,43.23
2022-10-12T16:29:57.840Z,43.36
2022-10-12T16:37:00.236Z,43.81
2022-10-12T16:44:01.905Z,44.18
2022-10-12T16:51:08.217Z,44.49
2022-10-12T16:58:09.788Z,45.25
2022-10-12T17:05:11.370Z,45.57
2022-10-12T17:12:13.206Z,46.17
2022-10-12T17:19:27.427Z,46.81
2022-10-12T17:26:29.127Z,47.18
2022-10-12T17:33:31.509Z,47.43
2022-10-12T17:40:33.051Z,48.12
2022-10-12T17:47:34.685Z,48.04
2022-10-12T17:54:36.814Z,48.62
2022-10-12T18:01:38.910Z,49.25
2022-10-12T18:08:40.536Z,49.25
2022-10-12T18:15:43.507Z,49.50
2022-10-12T18:22:45.095Z,50.06
2022-10-12T18:29:47.119Z,50.40
2022-10-12T18:36:48.752Z,50.13
2022-10-12T18:43:55.114Z,50.24
2022-10-12T18:50:57.483Z,50.30
2022-10-12T18:57:59.058Z,50.81
2022-10-12T19:05:00.603Z,50.98
2022-10-12T19:12:02.251Z,51.26
2022-10-12T19:19:06.107Z,51.79
2022-10-12T19:26:18.962Z,52.11
2022-10-12T19:33:20.924Z,52.17
2022-10-12T19:40:22.505Z,52.94
2022-10-12T19:47:24.138Z,53.59
2022-10-12T19:54:25.773Z,53.94
2022-10-12T20:01:37.137Z,54.20
2022-10-12T20:08:39.665Z,54.48
2022-10-12T20:15:41.278Z,55.09
2022-10-12T20:22:42.831Z,55.10
2022-10-12T20:29:44.509Z,55.39
2022-10-12T20:36:46.123Z,55.97
2022-10-12T20:43:47.732Z,56.28
2022-10-12T20:50:49.317Z,56.55
2022-10-12T20:57:50.880Z,57.08
2022-10-12T21:04:52.444Z,57.92
2022-10-12T21:11:54.128Z,58.31
2022-10-12T21:18:55.783Z,58.00
2022-10-12T21:25:57.414Z,58.35
2022-10-12T21:32:58.951Z,58.73
2022-10-12T21:40:00.543Z,58.76
2022-10-12T21:47:02.087Z,59.25
2022-10-12T21:54:04.786Z,59.71
2022-10-12T22:01:07.836Z,60.77
2022-10-12T22:08:09.700Z,61.06
2022-10-12T22:15:11.788Z,61.75
2022-10-12T22:22:13.344Z,62.14
2022-10-12T22:29:14.986Z,62.56
2022-10-12T22:36:16.788Z,62.90
2022-10-12T22:43:18.448Z,63.30
2022-10-12T22:50:20.051Z,63.55
2022-10-12T22:57:21.688Z,63.92
2022-10-12T23:04:23.249Z,64.69
2022-10-12T23:11:26.330Z,65.16
2022-10-12T23:18:28.075Z,65.62
2022-10-12T23:25:29.623Z,65.87
2022-10-12T23:32:31.417Z,66.43
2022-10-12T23:39:33.023Z,66.75
2022-10-12T23:46:34.593Z,66.89
2022-10-12T23:53:36.523Z,67.71
